createdAt,value
2023-03-26T00:04:58.452Z,100697.75
2023-03-26T00:10:04.573Z,100710.25
2023-03-26T00:15:11.030Z,100716.81
2023-03-26T00:20:16.373Z,100698.69
2023-03-26T00:25:24.317Z,100716.78
2023-03-26T00:30:29.440Z,100711.53
2023-03-26T00:35:38.020Z,100717.84
2023-03-26T00:40:48.570Z,100717.72
2023-03-26T00:45:55.964Z,100720.44
2023-03-26T00:51:02.028Z,100726.53
2023-03-26T00:56:08.367Z,100720.69
2023-03-26T01:01:16.888Z,100714.25
2023-03-26T01:06:42.591Z,100723.38
2023-03-26T01:11:50.245Z,100719.66
2023-03-26T01:16:58.345Z,100719.63
2023-03-26T01:22:03.367Z,100718.75
2023-03-26T01:27:41.577Z,100713.25
2023-03-26T01:33:14.934Z,100711.75
2023-03-26T01:38:47.264Z,100708.84
2023-03-26T01:44:00.909Z,100701.88
2023-03-26T01:49:14.954Z,100704.78
2023-03-26T01:54:24.136Z,100692.38
2023-03-26T01:59:58.008Z,100698.28
2023-03-26T02:05:23.611Z,100711.72
2023-03-26T02:10:38.834Z,100710.63
2023-03-26T02:15:59.070Z,100707.25
2023-03-26T02:21:23.417Z,100705.38
2023-03-26T02:26:31.474Z,100716.22
2023-03-26T02:31:48.870Z,100708.56
2023-03-26T02:36:54.328Z,100662.31
2023-03-26T02:42:02.045Z,100722.06
2023-03-26T02:47:10.993Z,100696.34
2023-03-26T02:52:21.221Z,100718.38
2023-03-26T02:57:29.075Z,100721.75
2023-03-26T03:02:54.654Z,100703.34
2023-03-26T03:08:22.964Z,100711.34
2023-03-26T03:13:44.187Z,100704.88
2023-03-26T03:18:57.747Z,100686.75
2023-03-26T03:24:20.562Z,100708.81
2023-03-26T03:29:26.675Z,100711.91
2023-03-26T03:34:32.862Z,100703.06
2023-03-26T03:39:38.219Z,100709.75
2023-03-26T03:44:44.015Z,100707.09
2023-03-26T03:50:09.768Z,100701.38
2023-03-26T03:55:20.470Z,100697.56
2023-03-26T04:00:31.494Z,100680.44
2023-03-26T04:06:07.620Z,100692.00
2023-03-26T04:11:14.742Z,100697.50
2023-03-26T04:16:58.454Z,100695.25
2023-03-26T04:22:05.297Z,100680.78
2023-03-26T04:27:21.383Z,100685.34
2023-03-26T04:32:30.372Z,100686.03
2023-03-26T04:37:40.543Z,100683.19
2023-03-26T04:42:49.319Z,100690.03
2023-03-26T04:48:09.242Z,100696.34
2023-03-26T04:53:21.784Z,100702.66
2023-03-26T04:58:33.667Z,100697.00
2023-03-26T05:03:41.953Z,100687.84
2023-03-26T05:08:53.324Z,100686.28
2023-03-26T05:14:36.716Z,100699.38
2023-03-26T05:19:47.224Z,100693.47
2023-03-26T05:24:52.895Z,100679.66
2023-03-26T05:30:05.316Z,100681.13
2023-03-26T05:35:20.628Z,100673.69
2023-03-26T05:40:26.699Z,100668.22
2023-03-26T05:45:41.730Z,100667.34
2023-03-26T05:50:59.269Z,100658.41
2023-03-26T05:56:11.508Z,100655.38
2023-03-26T06:01:38.005Z,100666.94
2023-03-26T06:07:11.065Z,100660.78
2023-03-26T06:12:18.145Z,100665.88
2023-03-26T06:17:23.809Z,100667.38
2023-03-26T06:22:48.609Z,100665.94
2023-03-26T06:27:58.985Z,100655.44
2023-03-26T06:33:24.678Z,100641.81
2023-03-26T06:38:32.620Z,100649.34
2023-03-26T06:43:43.399Z,100645.03
2023-03-26T06:49:12.992Z,100635.91
2023-03-26T06:54:46.593Z,100635.31
2023-03-26T07:00:14.223Z,100628.13
2023-03-26T07:05:39.618Z,100627.34
2023-03-26T07:11:04.244Z,100617.13
2023-03-26T07:16:30.172Z,100615.59
2023-03-26T07:22:00.156Z,100632.06
2023-03-26T07:27:54.092Z,100619.09
2023-03-26T07:33:29.425Z,100624.53
2023-03-26T07:39:14.409Z,100611.72
2023-03-26T07:45:11.972Z,100598.63
2023-03-26T07:50:24.779Z,100585.50
2023-03-26T07:56:11.921Z,100585.78
2023-03-26T08:02:06.847Z,100568.09
2023-03-26T08:07:53.371Z,100554.19
2023-03-26T08:13:25.075Z,100541.84
2023-03-26T08:18:49.877Z,100545.13
2023-03-26T08:24:12.721Z,100531.19
2023-03-26T08:29:45.659Z,100526.88
2023-03-26T08:34:53.262Z,100522.88
2023-03-26T08:39:58.480Z,100509.50
2023-03-26T08:45:31.874Z,100519.41
2023-03-26T08:50:45.979Z,100510.31
2023-03-26T08:55:55.466Z,100505.72
2023-03-26T09:01:34.659Z,100496.06
2023-03-26T09:06:44.976Z,100497.16
2023-03-26T09:12:27.152Z,100487.31
2023-03-26T09:18:06.765Z,100485.97
2023-03-26T09:23:19.025Z,100485.44
2023-03-26T09:29:01.510Z,100468.81
2023-03-26T09:34:52.502Z,100460.97
2023-03-26T09:40:23.099Z,100447.47
2023-03-26T09:45:53.021Z,100442.19
2023-03-26T09:51:50.860Z,100438.44
2023-03-26T09:57:19.141Z,100425.03
2023-03-26T10:02:54.823Z,100417.22
2023-03-26T10:08:09.444Z,100417.47
2023-03-26T10:13:36.913Z,100409.63
2023-03-26T10:18:57.484Z,100399.44
2023-03-26T10:24:25.117Z,100385.41
2023-03-26T10:29:46.998Z,100382.41
2023-03-26T10:35:11.173Z,100381.00
2023-03-26T10:40:55.099Z,100370.22
2023-03-26T10:46:26.933Z,100367.00
2023-03-26T10:51:57.686Z,100356.84
2023-03-26T10:57:21.419Z,100362.53
2023-03-26T11:02:41.640Z,100353.09
2023-03-26T11:08:03.351Z,100356.81
2023-03-26T11:13:21.713Z,100345.31
2023-03-26T11:18:50.917Z,100345.59
2023-03-26T11:24:33.369Z,100330.59
2023-03-26T11:29:45.427Z,100329.44
2023-03-26T11:35:40.335Z,100330.47
2023-03-26T11:40:53.571Z,100313.38
2023-03-26T11:46:27.223Z,100306.72
2023-03-26T11:51:39.596Z,100310.56
2023-03-26T11:57:07.275Z,100303.19
2023-03-26T12:02:25.698Z,100298.22
2023-03-26T12:07:35.265Z,100293.16
2023-03-26T12:12:44.088Z,100280.94
2023-03-26T12:17:56.624Z,100280.25
2023-03-26T12:23:04.752Z,100281.38
2023-03-26T12:28:14.746Z,100276.34
2023-03-26T12:33:34.774Z,100274.78
2023-03-26T12:38:42.999Z,100266.25
2023-03-26T12:44:56.639Z,100266.50
2023-03-26T12:49:17.924Z,100265.38
2023-03-26T12:54:39.719Z,100264.59
2023-03-26T13:00:11.878Z,100252.31
2023-03-26T13:05:56.269Z,100244.44
2023-03-26T13:11:40.796Z,100249.00
2023-03-26T13:17:12.066Z,100239.13
2023-03-26T13:22:42.155Z,100238.97
2023-03-26T13:28:28.348Z,100237.41
2023-03-26T13:34:00.910Z,100234.25
2023-03-26T13:39:40.974Z,100234.84
2023-03-26T13:45:17.533Z,100225.28
2023-03-26T13:50:37.085Z,100219.16
2023-03-26T13:55:51.109Z,100217.31
2023-03-26T14:01:20.067Z,100220.81
2023-03-26T14:06:35.950Z,100220.25
2023-03-26T14:12:21.114Z,100211.75
2023-03-26T14:18:02.564Z,100204.00
2023-03-26T14:23:32.234Z,100194.66
2023-03-26T14:29:14.739Z,100187.16
2023-03-26T14:34:51.586Z,100190.34
2023-03-26T14:40:22.604Z,100182.00
2023-03-26T14:45:38.190Z,100171.53
2023-03-26T14:51:19.174Z,100183.19
2023-03-26T14:56:54.190Z,100174.56
2023-03-26T15:02:10.477Z,100170.53
2023-03-26T15:07:56.526Z,100161.53
2023-03-26T15:13:25.332Z,100158.19
2023-03-26T15:19:26.280Z,100153.25
2023-03-26T15:24:58.926Z,100149.28
2023-03-26T15:30:28.902Z,100133.22
2023-03-26T15:36:06.473Z,100139.53
2023-03-26T15:41:28.437Z,100143.09
2023-03-26T15:46:59.580Z,100140.72
2023-03-26T15:52:26.440Z,100139.03
2023-03-26T15:57:51.713Z,100124.66
2023-03-26T16:03:11.197Z,100125.19
2023-03-26T16:08:39.070Z,100121.66
2023-03-26T16:13:57.908Z,100120.66
2023-03-26T16:19:23.274Z,100110.84
2023-03-26T16:24:41.706Z,100107.88
2023-03-26T16:30:02.515Z,100102.59
2023-03-26T16:35:40.800Z,100097.22
2023-03-26T16:41:06.655Z,100084.06
2023-03-26T16:46:56.648Z,100085.59
2023-03-26T16:52:15.676Z,100079.56
2023-03-26T16:57:48.432Z,100074.00
2023-03-26T17:03:18.058Z,100067.13
2023-03-26T17:08:37.365Z,100052.72
2023-03-26T17:14:03.526Z,100048.34
2023-03-26T17:19:48.316Z,100049.22
2023-03-26T17:25:07.849Z,100040.03
2023-03-26T17:31:00.867Z,100035.34
2023-03-26T17:36:42.671Z,100028.38
2023-03-26T17:42:00.892Z,100017.22
2023-03-26T17:47:19.365Z,100006.19
2023-03-26T17:52:34.919Z,100004.47
2023-03-26T17:57:47.041Z,99997.44
2023-03-26T18:03:01.976Z,99988.00
2023-03-26T18:14:04.291Z,99967.13
2023-03-26T18:19:22.932Z,99959.19
2023-03-26T18:24:39.997Z,99961.00
2023-03-26T18:30:16.714Z,99950.28
2023-03-26T18:35:26.002Z,99943.25
2023-03-26T18:40:44.963Z,99918.25
2023-03-26T18:46:19.730Z,99920.34
2023-03-26T18:51:30.663Z,99901.22
2023-03-26T18:56:44.232Z,99894.06
2023-03-26T19:01:51.400Z,99865.16
2023-03-26T19:06:57.650Z,99872.66
2023-03-26T19:12:33.464Z,99865.13
2023-03-26T19:17:46.604Z,99860.75
2023-03-26T19:22:55.837Z,99856.03
2023-03-26T19:28:03.168Z,99841.19
2023-03-26T19:33:21.722Z,99861.66
2023-03-26T19:38:39.547Z,99847.19
2023-03-26T19:43:55.823Z,99842.72
2023-03-26T19:49:01.897Z,99840.31
2023-03-26T19:54:17.920Z,99847.44
2023-03-26T19:59:23.318Z,99831.69
2023-03-26T20:04:36.169Z,99836.88
2023-03-26T20:09:43.465Z,99837.88
2023-03-26T20:14:49.871Z,99837.28
2023-03-26T20:19:55.050Z,99829.91
2023-03-26T20:25:00.573Z,99830.31
2023-03-26T20:30:10.469Z,99827.88
2023-03-26T20:35:36.270Z,99820.66
2023-03-26T20:40:45.487Z,99812.41
2023-03-26T20:45:52.558Z,99801.72
2023-03-26T20:50:58.002Z,99807.91
2023-03-26T20:56:05.452Z,99807.69
2023-03-26T21:01:35.893Z,99807.88
2023-03-26T21:06:42.580Z,99799.59
2023-03-26T21:12:07.575Z,99797.94
2023-03-26T21:17:25.156Z,99800.97
2023-03-26T21:22:35.942Z,99785.47
2023-03-26T21:28:29.132Z,99788.09
2023-03-26T21:33:43.127Z,99792.38
2023-03-26T21:38:48.764Z,99796.22
2023-03-26T21:43:54.095Z,99788.03
2023-03-26T21:48:59.503Z,99769.25
2023-03-26T21:54:06.884Z,99763.78
2023-03-26T21:59:34.165Z,99766.78
2023-03-26T22:04:59.313Z,99763.41
2023-03-26T22:10:05.583Z,99773.44
2023-03-26T22:15:17.449Z,99778.03
2023-03-26T22:20:30.134Z,99766.38
2023-03-26T22:25:36.322Z,99753.88
2023-03-26T22:30:42.125Z,99734.63
2023-03-26T22:35:47.564Z,99753.31
2023-03-26T22:40:58.334Z,99749.44
2023-03-26T22:46:04.239Z,99732.72
2023-03-26T22:51:09.889Z,99721.47
2023-03-26T22:56:16.047Z,99684.06
2023-03-26T23:01:24.348Z,99701.44
2023-03-26T23:06:29.656Z,99677.38
2023-03-26T23:11:35.398Z,99668.59
2023-03-26T23:16:41.140Z,99658.03
2023-03-26T23:21:46.500Z,99612.94
2023-03-26T23:26:51.842Z,99645.34
2023-03-26T23:31:57.484Z,99639.59
2023-03-26T23:37:03.486Z,99638.25
2023-03-26T23:42:08.769Z,99618.38
2023-03-26T23:47:17.247Z,99626.13
2023-03-26T23:52:23.118Z,99622.72
2023-03-26T23:57:28.317Z,99609.63
